createdAt,value
2022-11-21T00:01:02.000Z,3.6
2022-11-21T00:04:35.000Z,4.1
2022-11-21T00:08:07.000Z,3.3
2022-11-21T00:11:40.000Z,4
2022-11-21T00:14:31.000Z,3.5
2022-11-21T00:18:04.000Z,2.3
2022-11-21T00:21:36.000Z,3.4
2022-11-21T00:25:09.000Z,2.3
2022-11-21T00:28:41.000Z,3.7
2022-11-21T00:32:14.000Z,3.4
2022-11-21T00:35:46.000Z,3.3
2022-11-21T00:39:19.000Z,4.2
2022-11-21T00:42:52.000Z,4.2
2022-11-21T00:46:25.000Z,3.2
2022-11-21T00:49:58.000Z,2.9
2022-11-21T00:52:49.000Z,3.1
2022-11-21T00:56:21.000Z,2.9
2022-11-21T00:59:54.000Z,2.9
2022-11-21T01:03:27.000Z,3.2
2022-11-21T01:06:59.000Z,3.2
2022-11-21T01:10:32.000Z,3.6
2022-11-21T01:14:05.000Z,3.6
2022-11-21T01:17:37.000Z,3.2
2022-11-21T01:21:10.000Z,3.3
2022-11-21T01:24:43.000Z,3.4
2022-11-21T01:28:15.000Z,2.8
2022-11-21T01:31:06.000Z,3
2022-11-21T01:34:39.000Z,3.4
2022-11-21T01:38:11.000Z,2.8
2022-11-21T01:41:44.000Z,2.4
2022-11-21T01:45:17.000Z,2.3
2022-11-21T01:48:49.000Z,2.8
2022-11-21T01:52:22.000Z,2.5
2022-11-21T01:55:54.000Z,2.6
2022-11-21T01:59:27.000Z,2.2
2022-11-21T02:03:00.000Z,2.1
2022-11-21T02:06:32.000Z,2.4
2022-11-21T02:09:23.000Z,2.1
2022-11-21T02:12:56.000Z,2.1
2022-11-21T02:16:28.000Z,2.5
2022-11-21T02:20:01.000Z,2.2
2022-11-21T02:23:34.000Z,2.1
2022-11-21T02:27:06.000Z,1.8
2022-11-21T02:30:39.000Z,1.9
2022-11-21T02:34:11.000Z,1.7
2022-11-21T02:37:44.000Z,1.7
2022-11-21T02:41:17.000Z,1.7
2022-11-21T02:44:51.000Z,1.4
2022-11-21T02:47:42.000Z,1.6
2022-11-21T02:51:15.000Z,1.3
2022-11-21T02:54:47.000Z,1.2
2022-11-21T02:58:20.000Z,1.5
2022-11-21T03:01:53.000Z,1.3
2022-11-21T03:05:25.000Z,1.2
2022-11-21T03:08:58.000Z,1.2
2022-11-21T03:12:31.000Z,1.2
2022-11-21T03:16:04.000Z,1.1
2022-11-21T03:19:36.000Z,0.9
2022-11-21T03:23:09.000Z,1.3
2022-11-21T03:26:00.000Z,1
2022-11-21T03:29:33.000Z,1.2
2022-11-21T03:33:05.000Z,0.9
2022-11-21T03:36:38.000Z,1.3
2022-11-21T03:40:11.000Z,1.2
2022-11-21T03:43:43.000Z,1.4
2022-11-21T03:47:16.000Z,2.1
2022-11-21T03:50:48.000Z,2
2022-11-21T03:54:21.000Z,2.8
2022-11-21T03:57:54.000Z,2.9
2022-11-21T04:01:27.000Z,3.3
2022-11-21T04:04:21.000Z,3.1
2022-11-21T04:07:53.000Z,3.5
2022-11-21T04:11:26.000Z,3.3
2022-11-21T04:14:59.000Z,3.5
2022-11-21T04:18:38.000Z,3.4
2022-11-21T04:22:11.000Z,3.3
2022-11-21T04:25:43.000Z,3.2
2022-11-21T04:29:16.000Z,3.4
2022-11-21T04:32:53.000Z,3.2
2022-11-21T04:36:26.000Z,3.9
2022-11-21T04:39:59.000Z,3.7
2022-11-21T04:42:50.000Z,3.6
2022-11-21T04:46:23.000Z,4.2
2022-11-21T04:49:55.000Z,3.7
2022-11-21T04:53:28.000Z,3.5
2022-11-21T04:57:07.000Z,4.1
2022-11-21T05:00:40.000Z,3.8
2022-11-21T05:04:13.000Z,3.9
2022-11-21T05:07:45.000Z,4.2
2022-11-21T05:11:18.000Z,3.8
2022-11-21T05:14:51.000Z,4.1
2022-11-21T05:18:23.000Z,4.1
2022-11-21T05:21:14.000Z,3.8
2022-11-21T05:24:47.000Z,4.4
2022-11-21T05:28:20.000Z,5.2
2022-11-21T05:31:52.000Z,7.7
2022-11-21T05:35:25.000Z,5.5
2022-11-21T05:38:58.000Z,5.9
2022-11-21T05:42:30.000Z,6.2
2022-11-21T05:46:03.000Z,5.8
2022-11-21T05:49:35.000Z,5
2022-11-21T05:53:08.000Z,4.7
2022-11-21T05:56:45.000Z,5.7
2022-11-21T05:59:36.000Z,4.7
2022-11-21T06:03:08.000Z,5
2022-11-21T06:06:41.000Z,4.9
2022-11-21T06:10:14.000Z,5.8
2022-11-21T06:13:46.000Z,4.5
2022-11-21T06:17:19.000Z,4.2
2022-11-21T06:20:57.000Z,5
2022-11-21T06:24:30.000Z,5
2022-11-21T06:28:02.000Z,4.2
2022-11-21T06:31:35.000Z,5
2022-11-21T06:35:07.000Z,6.6
2022-11-21T06:37:59.000Z,4.3
2022-11-21T06:41:31.000Z,8.8
2022-11-21T06:45:04.000Z,6.3
2022-11-21T06:48:36.000Z,7.2
2022-11-21T06:52:09.000Z,6.9
2022-11-21T06:55:42.000Z,6.5
2022-11-21T06:59:14.000Z,7.8
2022-11-21T07:02:47.000Z,9.5
2022-11-21T07:06:28.000Z,12.5
2022-11-21T07:10:00.000Z,6.7
2022-11-21T07:13:33.000Z,11.6
2022-11-21T07:16:24.000Z,10.9
2022-11-21T07:19:57.000Z,7.9
2022-11-21T07:23:30.000Z,15
2022-11-21T07:27:02.000Z,9
2022-11-21T07:30:35.000Z,17.1
2022-11-21T07:34:07.000Z,16.2
2022-11-21T07:37:40.000Z,15.2
2022-11-21T07:41:12.000Z,15.3
2022-11-21T07:44:45.000Z,12
2022-11-21T07:48:18.000Z,9.9
2022-11-21T07:51:51.000Z,12.6
2022-11-21T07:54:42.000Z,10.2
2022-11-21T07:58:15.000Z,10.9
2022-11-21T08:01:47.000Z,11.7
2022-11-21T08:05:20.000Z,11.3
2022-11-21T08:08:53.000Z,11
2022-11-21T08:12:25.000Z,9.2
2022-11-21T08:15:58.000Z,8.7
2022-11-21T08:19:31.000Z,9.4
2022-11-21T08:23:03.000Z,9.7
2022-11-21T08:26:36.000Z,9.8
2022-11-21T08:30:08.000Z,10.6
2022-11-21T08:33:00.000Z,9.8
2022-11-21T08:36:32.000Z,9.8
2022-11-21T08:40:05.000Z,11.4
2022-11-21T08:43:38.000Z,8.5
2022-11-21T08:47:10.000Z,9.9
2022-11-21T08:50:43.000Z,10
2022-11-21T08:54:16.000Z,9
2022-11-21T08:57:48.000Z,8.4
2022-11-21T09:01:21.000Z,9.9
2022-11-21T09:04:54.000Z,10.4
2022-11-21T09:08:26.000Z,10.3
2022-11-21T09:11:17.000Z,11.3
2022-11-21T09:14:50.000Z,10.3
2022-11-21T09:18:23.000Z,10.2
2022-11-21T09:21:55.000Z,14.3
2022-11-21T09:25:28.000Z,12.8
2022-11-21T09:29:00.000Z,13.9
2022-11-21T09:32:33.000Z,13
2022-11-21T09:36:06.000Z,11.4
2022-11-21T09:39:39.000Z,12.3
2022-11-21T09:43:11.000Z,11.9
2022-11-21T09:46:46.000Z,11.1
2022-11-21T09:49:37.000Z,14.7
2022-11-21T09:53:09.000Z,13.7
2022-11-21T09:56:42.000Z,13.2
2022-11-21T10:00:15.000Z,12.2
2022-11-21T10:03:47.000Z,13.7
2022-11-21T10:07:20.000Z,10
2022-11-21T10:10:53.000Z,9.8
2022-11-21T10:14:36.000Z,9
2022-11-21T10:18:09.000Z,11.3
2022-11-21T10:21:41.000Z,9.8
2022-11-21T10:25:14.000Z,5.9
2022-11-21T10:28:10.000Z,5.6
2022-11-21T10:31:43.000Z,5.6
2022-11-21T10:35:15.000Z,4.8
2022-11-21T10:38:48.000Z,4.7
2022-11-21T10:42:21.000Z,4.7
2022-11-21T10:45:53.000Z,4.1
2022-11-21T10:49:26.000Z,4.3
2022-11-21T10:52:59.000Z,4.5
2022-11-21T10:56:31.000Z,4
2022-11-21T11:00:04.000Z,3.8
2022-11-21T11:03:37.000Z,4.1
2022-11-21T11:06:57.000Z,3.6
2022-11-21T11:10:30.000Z,7.6
2022-11-21T11:14:02.000Z,6.1
2022-11-21T11:17:35.000Z,4.1
2022-11-21T11:21:08.000Z,4
2022-11-21T11:24:40.000Z,4.5
2022-11-21T11:28:13.000Z,5.5
2022-11-21T11:31:45.000Z,4.4
2022-11-21T11:35:18.000Z,4.6
2022-11-21T11:38:50.000Z,3.7
2022-11-21T11:42:23.000Z,3.6
2022-11-21T11:45:14.000Z,3.8
2022-11-21T11:48:47.000Z,3.8
2022-11-21T11:52:45.000Z,4
2022-11-21T11:56:18.000Z,3.6
2022-11-21T11:59:50.000Z,3.7
2022-11-21T12:03:23.000Z,4.2
2022-11-21T12:06:55.000Z,3.9
2022-11-21T12:12:04.000Z,3.9
2022-11-21T12:15:37.000Z,5.7
2022-11-21T12:19:09.000Z,5.8
2022-11-21T12:22:42.000Z,4.2
2022-11-21T12:25:33.000Z,3.9
2022-11-21T12:29:06.000Z,3.8
2022-11-21T12:32:38.000Z,3.3
2022-11-21T12:36:12.000Z,3.8
2022-11-21T12:39:45.000Z,3.6
2022-11-21T12:43:18.000Z,3.4
2022-11-21T12:46:51.000Z,2.9
2022-11-21T12:50:23.000Z,2.5
2022-11-21T12:53:56.000Z,3
2022-11-21T12:57:34.000Z,3.2
2022-11-21T13:01:06.000Z,3.3
2022-11-21T13:04:05.000Z,2.7
2022-11-21T13:07:37.000Z,3
2022-11-21T13:11:10.000Z,2.7
2022-11-21T13:14:42.000Z,3.9
2022-11-21T13:18:15.000Z,3.8
2022-11-21T13:21:48.000Z,3.3
2022-11-21T13:25:20.000Z,3.2
2022-11-21T13:28:53.000Z,3.3
2022-11-21T13:32:25.000Z,3.5
2022-11-21T13:35:58.000Z,3.5
2022-11-21T13:39:31.000Z,3.1
2022-11-21T13:42:22.000Z,3
2022-11-21T13:45:54.000Z,2.9
2022-11-21T13:49:27.000Z,2.8
2022-11-21T13:53:00.000Z,2.7
2022-11-21T13:56:32.000Z,2.4
2022-11-21T14:00:05.000Z,2.9
2022-11-21T14:03:44.000Z,2.5
2022-11-21T14:07:17.000Z,2.2
2022-11-21T14:10:50.000Z,3.3
2022-11-21T14:14:31.000Z,3.3
2022-11-21T14:18:04.000Z,2.7
2022-11-21T14:20:55.000Z,3
2022-11-21T14:24:34.000Z,2.7
2022-11-21T14:28:07.000Z,3.7
2022-11-21T14:31:40.000Z,3.3
2022-11-21T14:35:12.000Z,3.3
2022-11-21T14:38:45.000Z,3.3
2022-11-21T14:42:54.000Z,3.1
2022-11-21T14:46:27.000Z,3.2
2022-11-21T14:50:00.000Z,3.4
2022-11-21T14:53:33.000Z,3.4
2022-11-21T14:57:30.000Z,3.4
2022-11-21T15:00:21.000Z,3.2
2022-11-21T15:04:24.000Z,3
2022-11-21T15:08:05.000Z,3
2022-11-21T15:12:32.000Z,2.5
2022-11-21T15:16:15.000Z,2.5
2022-11-21T15:20:24.000Z,2.5
2022-11-21T15:23:57.000Z,2.1
2022-11-21T15:27:30.000Z,4.5
2022-11-21T15:31:02.000Z,3.4
2022-11-21T15:34:36.000Z,2.7
2022-11-21T15:38:09.000Z,4.1
2022-11-21T15:41:00.000Z,3.4
2022-11-21T15:44:33.000Z,2.4
2022-11-21T15:48:05.000Z,2.1
2022-11-21T15:51:38.000Z,2.1
2022-11-21T15:55:34.000Z,2
2022-11-21T15:59:06.000Z,5.3
2022-11-21T16:02:39.000Z,2.7
2022-11-21T16:06:12.000Z,5.3
2022-11-21T16:09:47.000Z,5.3
2022-11-21T16:13:20.000Z,4.3
2022-11-21T16:16:52.000Z,4.3
2022-11-21T16:19:44.000Z,3.6
2022-11-21T16:23:16.000Z,4.6
2022-11-21T16:26:49.000Z,4.8
2022-11-21T16:30:22.000Z,4.8
2022-11-21T16:33:54.000Z,3.9
2022-11-21T16:37:27.000Z,4.9
2022-11-21T16:41:07.000Z,6.4
2022-11-21T16:44:40.000Z,7.3
2022-11-21T16:48:13.000Z,5
2022-11-21T16:51:47.000Z,5.2
2022-11-21T16:55:20.000Z,5.5
2022-11-21T16:58:11.000Z,5.4
2022-11-21T17:01:43.000Z,5.3
2022-11-21T17:05:16.000Z,3.4
2022-11-21T17:08:49.000Z,5.8
2022-11-21T17:12:21.000Z,9.1
2022-11-21T17:15:54.000Z,8.4
2022-11-21T17:19:26.000Z,5.8
2022-11-21T17:22:59.000Z,3.5
2022-11-21T17:26:32.000Z,3.3
2022-11-21T17:30:04.000Z,3.3
2022-11-21T17:33:37.000Z,3.7
2022-11-21T17:36:28.000Z,4.9
2022-11-21T17:40:01.000Z,6.5
2022-11-21T17:43:33.000Z,3.8
2022-11-21T17:47:06.000Z,4.1
2022-11-21T17:50:38.000Z,6.4
2022-11-21T17:54:11.000Z,5.8
2022-11-21T17:57:44.000Z,5.7
2022-11-21T18:01:16.000Z,5.6
2022-11-21T18:04:50.000Z,4.9
2022-11-21T18:08:22.000Z,3.6
2022-11-21T18:12:26.000Z,3.6
2022-11-21T18:15:17.000Z,4.8
2022-11-21T18:18:52.000Z,5.8
2022-11-21T18:22:24.000Z,4.9
2022-11-21T18:25:57.000Z,4.2
2022-11-21T18:29:30.000Z,4
2022-11-21T18:33:02.000Z,3
2022-11-21T18:36:42.000Z,3.1
2022-11-21T18:40:46.000Z,2.8
2022-11-21T18:44:19.000Z,4.4
2022-11-21T18:47:51.000Z,5.4
2022-11-21T18:51:24.000Z,5.2
2022-11-21T18:54:15.000Z,3.8
2022-11-21T18:57:48.000Z,3.7
2022-11-21T19:01:20.000Z,4.7
2022-11-21T19:04:54.000Z,6.7
2022-11-21T19:08:26.000Z,6.7
2022-11-21T19:12:39.000Z,21.2
2022-11-21T19:16:12.000Z,22.9
2022-11-21T19:19:45.000Z,18
2022-11-21T19:23:18.000Z,9.1
2022-11-21T19:26:50.000Z,8.5
2022-11-21T19:30:23.000Z,8.3
2022-11-21T19:33:14.000Z,9.2
2022-11-21T19:36:46.000Z,6
2022-11-21T19:40:19.000Z,8.2
2022-11-21T19:43:52.000Z,6.2
2022-11-21T19:47:24.000Z,6.6
2022-11-21T19:50:57.000Z,6.7
2022-11-21T19:54:30.000Z,6.2
2022-11-21T19:58:02.000Z,18.1
2022-11-21T20:01:35.000Z,45.6
2022-11-21T20:05:14.000Z,26.5
2022-11-21T20:08:47.000Z,135
2022-11-21T20:11:38.000Z,98
2022-11-21T20:15:11.000Z,23.8
2022-11-21T20:18:43.000Z,16.9
2022-11-21T20:22:16.000Z,20.3
2022-11-21T20:25:48.000Z,18.4
2022-11-21T20:29:21.000Z,14
2022-11-21T20:32:54.000Z,10.7
2022-11-21T20:36:33.000Z,10.3
2022-11-21T20:40:06.000Z,8.6
2022-11-21T20:43:38.000Z,7.5
2022-11-21T20:48:17.000Z,9
2022-11-21T20:55:40.000Z,8.4
2022-11-21T20:59:14.000Z,8
2022-11-21T21:02:46.000Z,7.7
2022-11-21T21:06:19.000Z,8.2
2022-11-21T21:09:52.000Z,8.2
2022-11-21T21:13:50.000Z,8.7
2022-11-21T21:17:22.000Z,8.2
2022-11-21T21:20:56.000Z,9
2022-11-21T21:24:42.000Z,9.2
2022-11-21T21:28:14.000Z,11
2022-11-21T21:31:06.000Z,10.2
2022-11-21T21:34:39.000Z,9.3
2022-11-21T21:38:11.000Z,9.1
2022-11-21T21:41:44.000Z,8.7
2022-11-21T21:45:17.000Z,8.3
2022-11-21T21:48:49.000Z,8.5
2022-11-21T21:52:22.000Z,9.6
2022-11-21T21:55:55.000Z,10.5
2022-11-21T21:59:27.000Z,9.2
2022-11-21T22:03:00.000Z,9.5
2022-11-21T22:06:33.000Z,8.7
2022-11-21T22:09:24.000Z,9.5
2022-11-21T22:12:57.000Z,8.1
2022-11-21T22:16:30.000Z,7
2022-11-21T22:20:02.000Z,5.1
2022-11-21T22:23:35.000Z,5.2
2022-11-21T22:27:34.000Z,4.7
2022-11-21T22:31:07.000Z,4.8
2022-11-21T22:34:40.000Z,4.3
2022-11-21T22:38:12.000Z,4.5
2022-11-21T22:41:45.000Z,4.3
2022-11-21T22:45:24.000Z,4.6
2022-11-21T22:48:15.000Z,4.3
2022-11-21T22:51:48.000Z,4.5
2022-11-21T22:55:21.000Z,3.9
2022-11-21T22:58:53.000Z,3.5
2022-11-21T23:02:26.000Z,4.2
2022-11-21T23:05:59.000Z,4.1
2022-11-21T23:09:31.000Z,3.7
2022-11-21T23:13:04.000Z,3.4
2022-11-21T23:16:37.000Z,3.8
2022-11-21T23:20:09.000Z,3.6
2022-11-21T23:23:42.000Z,3.5
2022-11-21T23:26:33.000Z,3.5
2022-11-21T23:30:06.000Z,3.1
2022-11-21T23:33:38.000Z,4.2
2022-11-21T23:37:11.000Z,3.6
2022-11-21T23:40:43.000Z,3.2
2022-11-21T23:44:16.000Z,3.3
2022-11-21T23:47:49.000Z,3.1
2022-11-21T23:51:22.000Z,3.5
2022-11-21T23:54:54.000Z,3.2
2022-11-21T23:58:27.000Z,3.2
